sensor_id;sensor_type;location;lat;lon;timestamp;temperature;humidity
4209;DHT22;36320;48.860;2.380;2023-04-06T00:25:25;17.10;32.30
4209;DHT22;36320;48.860;2.380;2023-04-06T00:27:51;17.10;32.30
4209;DHT22;36320;48.860;2.380;2023-04-06T00:30:16;17.10;32.90
4209;DHT22;36320;48.860;2.380;2023-04-06T00:32:42;17.10;33.10
4209;DHT22;36320;48.860;2.380;2023-04-06T00:35:08;17.10;33.30
4209;DHT22;36320;48.860;2.380;2023-04-06T00:37:34;17.10;33.40
4209;DHT22;36320;48.860;2.380;2023-04-06T00:40:00;17.10;33.60
4209;DHT22;36320;48.860;2.380;2023-04-06T00:42:26;17.10;33.70
4209;DHT22;36320;48.860;2.380;2023-04-06T00:44:53;17.00;33.80
4209;DHT22;36320;48.860;2.380;2023-04-06T00:47:19;17.00;34.00
4209;DHT22;36320;48.860;2.380;2023-04-06T00:49:44;17.00;34.20
4209;DHT22;36320;48.860;2.380;2023-04-06T00:52:10;17.00;34.40
4209;DHT22;36320;48.860;2.380;2023-04-06T00:54:36;17.00;34.50
4209;DHT22;36320;48.860;2.380;2023-04-06T00:57:02;17.00;34.80
4209;DHT22;36320;48.860;2.380;2023-04-06T00:59:28;17.00;35.00
4209;DHT22;36320;48.860;2.380;2023-04-06T01:01:54;17.00;35.10
4209;DHT22;36320;48.860;2.380;2023-04-06T01:04:20;17.00;35.20
4209;DHT22;36320;48.860;2.380;2023-04-06T01:06:48;17.00;35.40
4209;DHT22;36320;48.860;2.380;2023-04-06T01:09:14;17.00;35.60
4209;DHT22;36320;48.860;2.380;2023-04-06T01:11:40;17.00;35.70
4209;DHT22;36320;48.860;2.380;2023-04-06T01:14:05;17.00;35.80
4209;DHT22;36320;48.860;2.380;2023-04-06T01:16:32;17.00;35.90
4209;DHT22;36320;48.860;2.380;2023-04-06T01:18:57;17.00;36.00
4209;DHT22;36320;48.860;2.380;2023-04-06T01:21:23;17.00;36.10
4209;DHT22;36320;48.860;2.380;2023-04-06T01:23:49;17.00;36.20
4209;DHT22;36320;48.860;2.380;2023-04-06T01:26:15;17.00;36.30
4209;DHT22;36320;48.860;2.380;2023-04-06T01:28:40;17.00;36.40
4209;DHT22;36320;48.860;2.380;2023-04-06T01:31:07;17.00;36.60
4209;DHT22;36320;48.860;2.380;2023-04-06T01:33:33;17.00;36.70
4209;DHT22;36320;48.860;2.380;2023-04-06T01:35:59;16.90;36.80
4209;DHT22;36320;48.860;2.380;2023-04-06T01:38:25;16.90;36.90
4209;DHT22;36320;48.860;2.380;2023-04-06T01:40:52;17.00;37.70
4209;DHT22;36320;48.860;2.380;2023-04-06T01:43:18;17.00;37.20
4209;DHT22;36320;48.860;2.380;2023-04-06T01:45:44;16.80;37.30
4209;DHT22;36320;48.860;2.380;2023-04-06T01:48:09;17.00;37.70
4209;DHT22;36320;48.860;2.380;2023-04-06T01:50:35;16.90;38.00
4209;DHT22;36320;48.860;2.380;2023-04-06T01:53:01;16.80;38.20
4209;DHT22;36320;48.860;2.380;2023-04-06T01:55:27;16.80;38.50
4209;DHT22;36320;48.860;2.380;2023-04-06T01:57:53;16.80;38.70
4209;DHT22;36320;48.860;2.380;2023-04-06T02:00:18;16.80;38.90
4209;DHT22;36320;48.860;2.380;2023-04-06T02:02:44;16.70;39.10
4209;DHT22;36320;48.860;2.380;2023-04-06T02:05:11;16.70;39.30
4209;DHT22;36320;48.860;2.380;2023-04-06T02:07:37;16.70;39.50
4209;DHT22;36320;48.860;2.380;2023-04-06T02:10:13;16.90;39.80
4209;DHT22;36320;48.860;2.380;2023-04-06T02:12:42;16.70;39.80
4209;DHT22;36320;48.860;2.380;2023-04-06T02:15:08;16.60;39.80
4209;DHT22;36320;48.860;2.380;2023-04-06T02:17:34;16.60;40.00
4209;DHT22;36320;48.860;2.380;2023-04-06T02:20:00;16.60;40.20
4209;DHT22;36320;48.860;2.380;2023-04-06T02:22:26;16.20;40.00
4209;DHT22;36320;48.860;2.380;2023-04-06T02:24:52;16.60;40.60
4209;DHT22;36320;48.860;2.380;2023-04-06T02:27:18;16.60;40.70
4209;DHT22;36320;48.860;2.380;2023-04-06T02:29:43;16.60;41.00
4209;DHT22;36320;48.860;2.380;2023-04-06T02:32:09;16.50;41.00
4209;DHT22;36320;48.860;2.380;2023-04-06T02:34:35;16.50;41.10
4209;DHT22;36320;48.860;2.380;2023-04-06T02:37:01;16.50;41.20
4209;DHT22;36320;48.860;2.380;2023-04-06T02:39:27;16.50;41.30
4209;DHT22;36320;48.860;2.380;2023-04-06T02:41:53;16.60;41.30
4209;DHT22;36320;48.860;2.380;2023-04-06T02:44:18;16.60;41.40
4209;DHT22;36320;48.860;2.380;2023-04-06T02:46:46;16.60;41.40
4209;DHT22;36320;48.860;2.380;2023-04-06T02:49:11;16.60;41.50
4209;DHT22;36320;48.860;2.380;2023-04-06T02:51:37;16.60;41.50
4209;DHT22;36320;48.860;2.380;2023-04-06T02:54:02;16.60;42.20
4209;DHT22;36320;48.860;2.380;2023-04-06T02:56:28;16.70;41.60
4209;DHT22;36320;48.860;2.380;2023-04-06T02:58:54;16.70;41.50
4209;DHT22;36320;48.860;2.380;2023-04-06T03:01:19;16.70;41.60
4209;DHT22;36320;48.860;2.380;2023-04-06T03:03:45;16.60;41.50
4209;DHT22;36320;48.860;2.380;2023-04-06T03:06:11;16.60;41.40
4209;DHT22;36320;48.860;2.380;2023-04-06T03:08:37;16.60;41.50
4209;DHT22;36320;48.860;2.380;2023-04-06T03:11:02;16.60;41.40
4209;DHT22;36320;48.860;2.380;2023-04-06T03:13:28;16.60;41.50
4209;DHT22;36320;48.860;2.380;2023-04-06T03:15:54;16.60;41.50
4209;DHT22;36320;48.860;2.380;2023-04-06T03:18:24;16.60;41.50
4209;DHT22;36320;48.860;2.380;2023-04-06T03:20:51;16.60;41.60
4209;DHT22;36320;48.860;2.380;2023-04-06T03:23:16;16.60;41.60
4209;DHT22;36320;48.860;2.380;2023-04-06T03:25:42;16.60;41.60
4209;DHT22;36320;48.860;2.380;2023-04-06T03:28:08;16.60;41.50
4209;DHT22;36320;48.860;2.380;2023-04-06T03:30:34;16.60;41.50
4209;DHT22;36320;48.860;2.380;2023-04-06T03:33:00;16.60;41.40
4209;DHT22;36320;48.860;2.380;2023-04-06T03:35:25;16.60;41.40
4209;DHT22;36320;48.860;2.380;2023-04-06T03:37:51;16.60;41.40
4209;DHT22;36320;48.860;2.380;2023-04-06T03:40:17;16.60;41.30
4209;DHT22;36320;48.860;2.380;2023-04-06T03:42:42;16.60;41.90
4209;DHT22;36320;48.860;2.380;2023-04-06T03:45:08;16.20;40.90
4209;DHT22;36320;48.860;2.380;2023-04-06T03:47:34;16.60;41.30
4209;DHT22;36320;48.860;2.380;2023-04-06T03:50:00;16.60;41.20
4209;DHT22;36320;48.860;2.380;2023-04-06T03:52:26;16.60;41.20
4209;DHT22;36320;48.860;2.380;2023-04-06T03:54:52;16.70;41.30
4209;DHT22;36320;48.860;2.380;2023-04-06T03:57:18;16.70;41.30
4209;DHT22;36320;48.860;2.380;2023-04-06T03:59:43;16.70;41.20
4209;DHT22;36320;48.860;2.380;2023-04-06T04:02:09;16.60;41.10
4209;DHT22;36320;48.860;2.380;2023-04-06T04:04:35;16.60;41.10
4209;DHT22;36320;48.860;2.380;2023-04-06T04:07:00;16.60;41.20
4209;DHT22;36320;48.860;2.380;2023-04-06T04:09:26;16.60;41.30
4209;DHT22;36320;48.860;2.380;2023-04-06T04:11:52;16.60;41.30
4209;DHT22;36320;48.860;2.380;2023-04-06T04:14:17;16.60;41.30
4209;DHT22;36320;48.860;2.380;2023-04-06T04:16:43;16.60;41.20
4209;DHT22;36320;48.860;2.380;2023-04-06T04:19:09;16.60;41.20
4209;DHT22;36320;48.860;2.380;2023-04-06T04:21:45;16.60;41.20
4209;DHT22;36320;48.860;2.380;2023-04-06T04:24:12;16.60;41.30
4209;DHT22;36320;48.860;2.380;2023-04-06T04:26:38;16.50;41.20
4209;DHT22;36320;48.860;2.380;2023-04-06T04:29:04;16.50;41.20
4209;DHT22;36320;48.860;2.380;2023-04-06T04:31:30;16.60;41.40
4209;DHT22;36320;48.860;2.380;2023-04-06T04:33:57;16.60;41.40
4209;DHT22;36320;48.860;2.380;2023-04-06T04:36:23;16.60;41.40
4209;DHT22;36320;48.860;2.380;2023-04-06T04:38:51;16.60;41.50
4209;DHT22;36320;48.860;2.380;2023-04-06T04:41:17;16.60;41.60
4209;DHT22;36320;48.860;2.380;2023-04-06T04:43:42;16.60;41.70
4209;DHT22;36320;48.860;2.380;2023-04-06T04:46:08;16.60;41.60
4209;DHT22;36320;48.860;2.380;2023-04-06T04:48:34;16.60;41.70
4209;DHT22;36320;48.860;2.380;2023-04-06T04:51:00;16.60;41.70
4209;DHT22;36320;48.860;2.380;2023-04-06T04:53:26;16.70;41.80
4209;DHT22;36320;48.860;2.380;2023-04-06T04:55:51;16.70;41.70
4209;DHT22;36320;48.860;2.380;2023-04-06T04:58:17;16.70;41.70
4209;DHT22;36320;48.860;2.380;2023-04-06T05:00:45;16.60;41.60
4209;DHT22;36320;48.860;2.380;2023-04-06T05:03:21;16.70;41.80
4209;DHT22;36320;48.860;2.380;2023-04-06T05:05:47;16.60;41.70
4209;DHT22;36320;48.860;2.380;2023-04-06T05:08:13;16.60;41.60
4209;DHT22;36320;48.860;2.380;2023-04-06T05:10:39;16.60;41.70
4209;DHT22;36320;48.860;2.380;2023-04-06T05:13:05;15.90;41.10
4209;DHT22;36320;48.860;2.380;2023-04-06T05:15:31;16.60;41.70
4209;DHT22;36320;48.860;2.380;2023-04-06T05:17:56;16.60;41.80
4209;DHT22;36320;48.860;2.380;2023-04-06T05:20:22;16.60;41.80
4209;DHT22;36320;48.860;2.380;2023-04-06T05:22:48;16.70;41.90
4209;DHT22;36320;48.860;2.380;2023-04-06T05:25:14;16.70;41.90
4209;DHT22;36320;48.860;2.380;2023-04-06T05:27:40;16.70;41.90
4209;DHT22;36320;48.860;2.380;2023-04-06T05:30:07;16.70;41.90
4209;DHT22;36320;48.860;2.380;2023-04-06T05:32:34;16.70;41.90
4209;DHT22;36320;48.860;2.380;2023-04-06T05:35:00;16.70;42.00
4209;DHT22;36320;48.860;2.380;2023-04-06T05:37:26;16.20;42.50
4209;DHT22;36320;48.860;2.380;2023-04-06T05:39:52;15.80;44.20
4209;DHT22;36320;48.860;2.380;2023-04-06T05:42:17;15.80;44.20
4209;DHT22;36320;48.860;2.380;2023-04-06T05:44:43;15.80;44.50
4209;DHT22;36320;48.860;2.380;2023-04-06T05:47:09;15.80;45.00
4209;DHT22;36320;48.860;2.380;2023-04-06T05:49:36;15.50;45.30
4209;DHT22;36320;48.860;2.380;2023-04-06T05:52:02;15.40;45.80
4209;DHT22;36320;48.860;2.380;2023-04-06T05:54:29;15.30;46.40
4209;DHT22;36320;48.860;2.380;2023-04-06T05:56:55;15.40;46.90
4209;DHT22;36320;48.860;2.380;2023-04-06T05:59:22;15.30;47.70
4209;DHT22;36320;48.860;2.380;2023-04-06T06:01:49;15.20;47.50
4209;DHT22;36320;48.860;2.380;2023-04-06T06:04:14;15.10;47.90
4209;DHT22;36320;48.860;2.380;2023-04-06T06:06:40;15.10;48.50
4209;DHT22;36320;48.860;2.380;2023-04-06T06:09:06;15.10;48.40
4209;DHT22;36320;48.860;2.380;2023-04-06T06:11:32;15.30;48.50
4209;DHT22;36320;48.860;2.380;2023-04-06T06:13:58;15.40;48.80
4209;DHT22;36320;48.860;2.380;2023-04-06T06:16:24;15.40;49.00
4209;DHT22;36320;48.860;2.380;2023-04-06T06:18:50;15.40;48.90
4209;DHT22;36320;48.860;2.380;2023-04-06T06:21:16;15.30;49.00
4209;DHT22;36320;48.860;2.380;2023-04-06T06:23:43;15.30;49.30
4209;DHT22;36320;48.860;2.380;2023-04-06T06:26:09;15.40;49.90
4209;DHT22;36320;48.860;2.380;2023-04-06T06:28:36;15.50;50.20
4209;DHT22;36320;48.860;2.380;2023-04-06T06:31:03;15.30;50.10
4209;DHT22;36320;48.860;2.380;2023-04-06T06:33:29;15.30;49.90
4209;DHT22;36320;48.860;2.380;2023-04-06T06:35:55;15.40;49.70
4209;DHT22;36320;48.860;2.380;2023-04-06T06:38:20;15.50;50.00
4209;DHT22;36320;48.860;2.380;2023-04-06T06:40:46;15.60;50.00
4209;DHT22;36320;48.860;2.380;2023-04-06T06:43:12;15.60;49.70
4209;DHT22;36320;48.860;2.380;2023-04-06T06:45:38;15.70;49.60
4209;DHT22;36320;48.860;2.380;2023-04-06T06:48:04;15.70;49.30
4209;DHT22;36320;48.860;2.380;2023-04-06T06:50:29;15.70;49.10
4209;DHT22;36320;48.860;2.380;2023-04-06T06:52:55;15.80;49.20
4209;DHT22;36320;48.860;2.380;2023-04-06T06:55:22;15.70;49.00
4209;DHT22;36320;48.860;2.380;2023-04-06T06:57:47;15.70;49.20
4209;DHT22;36320;48.860;2.380;2023-04-06T07:00:13;15.60;49.50
4209;DHT22;36320;48.860;2.380;2023-04-06T07:02:40;15.50;49.60
4209;DHT22;36320;48.860;2.380;2023-04-06T07:05:06;15.50;49.70
4209;DHT22;36320;48.860;2.380;2023-04-06T07:07:33;15.40;49.80
4209;DHT22;36320;48.860;2.380;2023-04-06T07:10:00;15.20;49.80
4209;DHT22;36320;48.860;2.380;2023-04-06T07:12:26;16.00;50.90
4209;DHT22;36320;48.860;2.380;2023-04-06T07:14:52;15.00;50.30
4209;DHT22;36320;48.860;2.380;2023-04-06T07:17:18;15.10;50.30
4209;DHT22;36320;48.860;2.380;2023-04-06T07:19:44;14.90;50.30
4209;DHT22;36320;48.860;2.380;2023-04-06T07:22:11;14.90;50.50
4209;DHT22;36320;48.860;2.380;2023-04-06T07:24:37;15.10;50.70
4209;DHT22;36320;48.860;2.380;2023-04-06T07:27:03;15.40;50.60
4209;DHT22;36320;48.860;2.380;2023-04-06T07:29:28;15.50;50.40
4209;DHT22;36320;48.860;2.380;2023-04-06T07:31:57;15.50;50.30
4209;DHT22;36320;48.860;2.380;2023-04-06T07:34:23;15.60;50.60
4209;DHT22;36320;48.860;2.380;2023-04-06T07:36:49;15.40;50.90
4209;DHT22;36320;48.860;2.380;2023-04-06T07:39:15;15.30;51.10
4209;DHT22;36320;48.860;2.380;2023-04-06T07:41:41;15.30;51.40
4209;DHT22;36320;48.860;2.380;2023-04-06T07:44:06;14.90;52.80
4209;DHT22;36320;48.860;2.380;2023-04-06T07:46:34;14.80;53.00
4209;DHT22;36320;48.860;2.380;2023-04-06T07:49:00;14.70;54.00
4209;DHT22;36320;48.860;2.380;2023-04-06T07:51:30;14.80;54.30
4209;DHT22;36320;48.860;2.380;2023-04-06T07:53:56;14.90;54.70
4209;DHT22;36320;48.860;2.380;2023-04-06T07:56:23;14.80;55.30
4209;DHT22;36320;48.860;2.380;2023-04-06T07:58:49;14.90;55.80
4209;DHT22;36320;48.860;2.380;2023-04-06T08:01:15;15.10;56.00
4209;DHT22;36320;48.860;2.380;2023-04-06T08:03:41;15.30;56.20
4209;DHT22;36320;48.860;2.380;2023-04-06T08:06:07;15.40;56.20
4209;DHT22;36320;48.860;2.380;2023-04-06T08:08:32;15.20;56.60
4209;DHT22;36320;48.860;2.380;2023-04-06T08:10:58;15.30;56.90
4209;DHT22;36320;48.860;2.380;2023-04-06T08:13:24;15.10;57.30
4209;DHT22;36320;48.860;2.380;2023-04-06T08:15:50;14.70;59.00
4209;DHT22;36320;48.860;2.380;2023-04-06T08:18:15;14.60;59.00
4209;DHT22;36320;48.860;2.380;2023-04-06T08:20:41;14.80;58.90
4209;DHT22;36320;48.860;2.380;2023-04-06T08:23:07;15.00;58.90
4209;DHT22;36320;48.860;2.380;2023-04-06T08:25:35;15.10;58.90
4209;DHT22;36320;48.860;2.380;2023-04-06T08:28:01;15.30;59.00
4209;DHT22;36320;48.860;2.380;2023-04-06T08:30:28;15.30;58.70
4209;DHT22;36320;48.860;2.380;2023-04-06T08:32:55;15.20;59.20
4209;DHT22;36320;48.860;2.380;2023-04-06T08:35:21;15.20;59.40
4209;DHT22;36320;48.860;2.380;2023-04-06T08:37:46;15.30;59.30
4209;DHT22;36320;48.860;2.380;2023-04-06T08:40:13;15.20;59.30
4209;DHT22;36320;48.860;2.380;2023-04-06T08:42:40;15.30;59.40
4209;DHT22;36320;48.860;2.380;2023-04-06T08:45:09;15.20;59.40
4209;DHT22;36320;48.860;2.380;2023-04-06T08:47:39;15.40;59.20
4209;DHT22;36320;48.860;2.380;2023-04-06T08:50:06;15.30;59.30
4209;DHT22;36320;48.860;2.380;2023-04-06T08:52:33;15.50;59.30
4209;DHT22;36320;48.860;2.380;2023-04-06T08:55:00;15.40;59.10
4209;DHT22;36320;48.860;2.380;2023-04-06T08:57:27;15.50;59.20
4209;DHT22;36320;48.860;2.380;2023-04-06T08:59:54;15.20;59.40
4209;DHT22;36320;48.860;2.380;2023-04-06T09:02:21;15.00;59.80
4209;DHT22;36320;48.860;2.380;2023-04-06T09:04:48;15.10;59.90
4209;DHT22;36320;48.860;2.380;2023-04-06T09:07:15;15.00;60.20
4209;DHT22;36320;48.860;2.380;2023-04-06T09:09:41;14.80;60.20
4209;DHT22;36320;48.860;2.380;2023-04-06T09:12:29;14.80;60.40
4209;DHT22;36320;48.860;2.380;2023-04-06T09:14:56;14.80;60.70
4209;DHT22;36320;48.860;2.380;2023-04-06T09:17:23;15.00;60.60
4209;DHT22;36320;48.860;2.380;2023-04-06T09:19:49;15.10;60.30
4209;DHT22;36320;48.860;2.380;2023-04-06T09:22:16;15.00;60.50
4209;DHT22;36320;48.860;2.380;2023-04-06T09:24:52;15.00;60.80
4209;DHT22;36320;48.860;2.380;2023-04-06T09:27:32;15.00;61.10
4209;DHT22;36320;48.860;2.380;2023-04-06T09:30:06;14.90;61.40
4209;DHT22;36320;48.860;2.380;2023-04-06T09:32:32;14.90;62.40
4209;DHT22;36320;48.860;2.380;2023-04-06T09:35:10;14.90;63.00
4209;DHT22;36320;48.860;2.380;2023-04-06T09:37:36;14.80;64.10
4209;DHT22;36320;48.860;2.380;2023-04-06T09:40:06;14.80;64.70
4209;DHT22;36320;48.860;2.380;2023-04-06T09:42:33;14.90;65.40
4209;DHT22;36320;48.860;2.380;2023-04-06T09:45:00;15.00;65.50
4209;DHT22;36320;48.860;2.380;2023-04-06T09:47:26;15.10;65.50
4209;DHT22;36320;48.860;2.380;2023-04-06T09:49:59;15.10;65.40
4209;DHT22;36320;48.860;2.380;2023-04-06T09:55:40;15.30;65.30
4209;DHT22;36320;48.860;2.380;2023-04-06T09:58:09;15.00;65.50
4209;DHT22;36320;48.860;2.380;2023-04-06T10:06:11;14.60;67.00
4209;DHT22;36320;48.860;2.380;2023-04-06T10:08:40;14.70;67.40
4209;DHT22;36320;48.860;2.380;2023-04-06T10:11:08;14.60;67.80
4209;DHT22;36320;48.860;2.380;2023-04-06T10:13:35;14.60;68.00
4209;DHT22;36320;48.860;2.380;2023-04-06T10:16:01;14.60;67.90
4209;DHT22;36320;48.860;2.380;2023-04-06T10:18:27;14.40;68.10
4209;DHT22;36320;48.860;2.380;2023-04-06T10:20:55;14.50;68.20
4209;DHT22;36320;48.860;2.380;2023-04-06T10:23:40;14.60;68.30
4209;DHT22;36320;48.860;2.380;2023-04-06T10:26:13;14.90;68.00
4209;DHT22;36320;48.860;2.380;2023-04-06T10:28:42;14.80;67.90
4209;DHT22;36320;48.860;2.380;2023-04-06T10:31:08;14.70;67.80
4209;DHT22;36320;48.860;2.380;2023-04-06T10:33:35;14.60;68.50
4209;DHT22;36320;48.860;2.380;2023-04-06T10:36:14;14.50;68.70
4209;DHT22;36320;48.860;2.380;2023-04-06T10:38:42;14.80;68.70
4209;DHT22;36320;48.860;2.380;2023-04-06T10:41:10;15.20;68.10
4209;DHT22;36320;48.860;2.380;2023-04-06T10:43:38;15.10;67.70
4209;DHT22;36320;48.860;2.380;2023-04-06T10:46:06;15.00;67.90
4209;DHT22;36320;48.860;2.380;2023-04-06T10:48:43;14.90;68.00
4209;DHT22;36320;48.860;2.380;2023-04-06T10:51:14;15.00;68.20
4209;DHT22;36320;48.860;2.380;2023-04-06T10:53:47;15.10;68.50
4209;DHT22;36320;48.860;2.380;2023-04-06T10:56:18;15.20;68.40
4209;DHT22;36320;48.860;2.380;2023-04-06T10:58:52;15.20;68.40
4209;DHT22;36320;48.860;2.380;2023-04-06T11:01:19;15.30;68.90
4209;DHT22;36320;48.860;2.380;2023-04-06T11:03:50;15.70;68.80
4209;DHT22;36320;48.860;2.380;2023-04-06T11:06:26;16.00;68.20
4209;DHT22;36320;48.860;2.380;2023-04-06T11:08:54;16.00;67.40
4209;DHT22;36320;48.860;2.380;2023-04-06T11:11:22;15.80;67.50
4209;DHT22;36320;48.860;2.380;2023-04-06T11:13:55;15.90;67.60
4209;DHT22;36320;48.860;2.380;2023-04-06T11:16:32;15.90;67.20
4209;DHT22;36320;48.860;2.380;2023-04-06T11:18:59;16.10;67.00
4209;DHT22;36320;48.860;2.380;2023-04-06T11:21:48;16.40;66.10
4209;DHT22;36320;48.860;2.380;2023-04-06T11:24:22;16.50;65.00
4209;DHT22;36320;48.860;2.380;2023-04-06T11:26:50;16.40;64.10
4209;DHT22;36320;48.860;2.380;2023-04-06T11:29:22;16.10;64.00
4209;DHT22;36320;48.860;2.380;2023-04-06T11:31:51;16.00;64.00
4209;DHT22;36320;48.860;2.380;2023-04-06T11:34:24;16.40;64.40
4209;DHT22;36320;48.860;2.380;2023-04-06T11:37:01;16.80;63.10
4209;DHT22;36320;48.860;2.380;2023-04-06T11:39:29;17.50;62.50
4209;DHT22;36320;48.860;2.380;2023-04-06T11:41:59;17.90;61.30
4209;DHT22;36320;48.860;2.380;2023-04-06T11:44:35;17.80;60.30
4209;DHT22;36320;48.860;2.380;2023-04-06T11:47:09;17.80;60.10
4209;DHT22;36320;48.860;2.380;2023-04-06T11:49:39;18.20;59.80
4209;DHT22;36320;48.860;2.380;2023-04-06T11:52:23;18.00;58.80
4209;DHT22;36320;48.860;2.380;2023-04-06T11:54:50;17.70;59.00
4209;DHT22;36320;48.860;2.380;2023-04-06T11:57:17;17.90;59.10
4209;DHT22;36320;48.860;2.380;2023-04-06T11:59:44;17.70;58.60
4209;DHT22;36320;48.860;2.380;2023-04-06T12:02:10;17.70;58.60
4209;DHT22;36320;48.860;2.380;2023-04-06T12:04:36;17.60;58.40
4209;DHT22;36320;48.860;2.380;2023-04-06T12:07:03;17.30;58.20
4209;DHT22;36320;48.860;2.380;2023-04-06T12:09:29;17.20;58.70
4209;DHT22;36320;48.860;2.380;2023-04-06T12:11:57;17.30;58.50
4209;DHT22;36320;48.860;2.380;2023-04-06T12:14:23;17.80;58.30
4209;DHT22;36320;48.860;2.380;2023-04-06T12:16:49;18.10;57.60
4209;DHT22;36320;48.860;2.380;2023-04-06T12:19:15;18.60;57.00
4209;DHT22;36320;48.860;2.380;2023-04-06T12:21:41;18.90;56.30
4209;DHT22;36320;48.860;2.380;2023-04-06T12:24:08;19.40;55.80
4209;DHT22;36320;48.860;2.380;2023-04-06T12:26:35;19.60;54.80
4209;DHT22;36320;48.860;2.380;2023-04-06T12:29:01;18.90;53.90
4209;DHT22;36320;48.860;2.380;2023-04-06T12:31:34;18.40;54.80
4209;DHT22;36320;48.860;2.380;2023-04-06T12:34:00;18.10;55.00
4209;DHT22;36320;48.860;2.380;2023-04-06T12:36:27;17.80;55.20
4209;DHT22;36320;48.860;2.380;2023-04-06T12:38:53;17.50;55.40
4209;DHT22;36320;48.860;2.380;2023-04-06T12:41:20;17.20;55.60
4209;DHT22;36320;48.860;2.380;2023-04-06T12:43:46;17.00;56.00
4209;DHT22;36320;48.860;2.380;2023-04-06T12:46:12;17.00;56.30
4209;DHT22;36320;48.860;2.380;2023-04-06T12:48:39;16.90;56.40
4209;DHT22;36320;48.860;2.380;2023-04-06T12:51:06;16.80;56.60
4209;DHT22;36320;48.860;2.380;2023-04-06T12:53:33;16.80;56.60
4209;DHT22;36320;48.860;2.380;2023-04-06T12:56:00;16.80;56.50
4209;DHT22;36320;48.860;2.380;2023-04-06T12:58:26;16.90;56.70
4209;DHT22;36320;48.860;2.380;2023-04-06T13:00:55;17.30;56.30
4209;DHT22;36320;48.860;2.380;2023-04-06T13:03:23;17.20;56.00
4209;DHT22;36320;48.860;2.380;2023-04-06T13:05:50;17.10;56.10
4209;DHT22;36320;48.860;2.380;2023-04-06T13:08:17;17.10;56.10
4209;DHT22;36320;48.860;2.380;2023-04-06T13:10:52;16.80;56.10
4209;DHT22;36320;48.860;2.380;2023-04-06T13:13:23;16.90;56.40
4209;DHT22;36320;48.860;2.380;2023-04-06T13:15:48;17.00;56.30
4209;DHT22;36320;48.860;2.380;2023-04-06T13:18:15;17.00;56.20
4209;DHT22;36320;48.860;2.380;2023-04-06T13:20:41;17.10;56.20
4209;DHT22;36320;48.860;2.380;2023-04-06T13:23:07;17.30;55.90
4209;DHT22;36320;48.860;2.380;2023-04-06T13:25:34;17.50;55.80
4209;DHT22;36320;48.860;2.380;2023-04-06T13:28:00;17.60;55.70
4209;DHT22;36320;48.860;2.380;2023-04-06T13:30:26;17.50;55.40
4209;DHT22;36320;48.860;2.380;2023-04-06T13:32:52;17.60;55.40
4209;DHT22;36320;48.860;2.380;2023-04-06T13:35:18;17.30;55.00
4209;DHT22;36320;48.860;2.380;2023-04-06T13:37:44;15.70;53.70
4209;DHT22;36320;48.860;2.380;2023-04-06T13:40:10;17.30;54.90
4209;DHT22;36320;48.860;2.380;2023-04-06T13:42:36;17.30;54.80
4209;DHT22;36320;48.860;2.380;2023-04-06T13:45:06;17.70;54.50
4209;DHT22;36320;48.860;2.380;2023-04-06T13:47:32;17.80;54.20
4209;DHT22;36320;48.860;2.380;2023-04-06T13:49:58;18.00;54.20
4209;DHT22;36320;48.860;2.380;2023-04-06T13:52:23;18.10;54.00
4209;DHT22;36320;48.860;2.380;2023-04-06T13:54:49;18.00;54.10
4209;DHT22;36320;48.860;2.380;2023-04-06T13:57:16;18.00;54.10
4209;DHT22;36320;48.860;2.380;2023-04-06T13:59:42;18.00;54.20
4209;DHT22;36320;48.860;2.380;2023-04-06T14:02:09;17.90;54.10
4209;DHT22;36320;48.860;2.380;2023-04-06T14:04:36;18.20;54.10
4209;DHT22;36320;48.860;2.380;2023-04-06T14:07:03;18.50;53.40
4209;DHT22;36320;48.860;2.380;2023-04-06T14:09:32;18.50;52.70
4209;DHT22;36320;48.860;2.380;2023-04-06T14:11:58;18.60;52.50
4209;DHT22;36320;48.860;2.380;2023-04-06T14:14:25;18.70;52.20
4209;DHT22;36320;48.860;2.380;2023-04-06T14:16:51;19.10;51.80
4209;DHT22;36320;48.860;2.380;2023-04-06T14:19:18;19.20;50.70
4209;DHT22;36320;48.860;2.380;2023-04-06T14:21:47;19.00;50.10
4209;DHT22;36320;48.860;2.380;2023-04-06T14:24:14;19.20;50.00
4209;DHT22;36320;48.860;2.380;2023-04-06T14:26:41;19.40;49.70
4209;DHT22;36320;48.860;2.380;2023-04-06T14:29:08;19.50;49.20
4209;DHT22;36320;48.860;2.380;2023-04-06T14:31:36;19.60;49.00
4209;DHT22;36320;48.860;2.380;2023-04-06T14:34:03;19.10;48.60
4209;DHT22;36320;48.860;2.380;2023-04-06T14:36:32;19.20;49.00
4209;DHT22;36320;48.860;2.380;2023-04-06T14:39:05;19.70;48.60
4209;DHT22;36320;48.860;2.380;2023-04-06T14:41:32;19.80;48.10
4209;DHT22;36320;48.860;2.380;2023-04-06T14:43:58;20.30;47.90
4209;DHT22;36320;48.860;2.380;2023-04-06T14:46:24;20.50;47.20
4209;DHT22;36320;48.860;2.380;2023-04-06T14:48:50;20.70;46.80
4209;DHT22;36320;48.860;2.380;2023-04-06T14:51:16;20.70;46.40
4209;DHT22;36320;48.860;2.380;2023-04-06T14:53:42;20.70;46.00
4209;DHT22;36320;48.860;2.380;2023-04-06T14:56:08;20.40;45.90
4209;DHT22;36320;48.860;2.380;2023-04-06T14:58:34;20.00;46.10
4209;DHT22;36320;48.860;2.380;2023-04-06T15:01:01;20.00;46.50
4209;DHT22;36320;48.860;2.380;2023-04-06T15:03:28;19.90;46.50
4209;DHT22;36320;48.860;2.380;2023-04-06T15:05:54;19.40;47.00
4209;DHT22;36320;48.860;2.380;2023-04-06T15:08:22;19.50;47.60
4209;DHT22;36320;48.860;2.380;2023-04-06T15:10:51;19.50;47.40
4209;DHT22;36320;48.860;2.380;2023-04-06T15:13:17;19.50;47.30
4209;DHT22;36320;48.860;2.380;2023-04-06T15:15:44;19.30;47.60
4209;DHT22;36320;48.860;2.380;2023-04-06T15:18:10;19.10;48.10
4209;DHT22;36320;48.860;2.380;2023-04-06T15:20:36;19.00;48.40
4209;DHT22;36320;48.860;2.380;2023-04-06T15:23:03;19.00;48.80
4209;DHT22;36320;48.860;2.380;2023-04-06T15:25:30;19.10;49.00
4209;DHT22;36320;48.860;2.380;2023-04-06T15:27:56;19.20;49.20
4209;DHT22;36320;48.860;2.380;2023-04-06T15:30:22;19.50;49.10
4209;DHT22;36320;48.860;2.380;2023-04-06T15:33:07;19.80;48.50
4209;DHT22;36320;48.860;2.380;2023-04-06T15:35:34;19.80;47.50
4209;DHT22;36320;48.860;2.380;2023-04-06T15:38:04;20.00;46.90
4209;DHT22;36320;48.860;2.380;2023-04-06T15:40:31;20.30;46.40
4209;DHT22;36320;48.860;2.380;2023-04-06T15:42:57;20.40;46.50
4209;DHT22;36320;48.860;2.380;2023-04-06T15:45:23;20.50;46.90
4209;DHT22;36320;48.860;2.380;2023-04-06T15:47:49;20.30;46.60
4209;DHT22;36320;48.860;2.380;2023-04-06T15:50:15;20.00;46.50
4209;DHT22;36320;48.860;2.380;2023-04-06T15:52:41;20.20;46.80
4209;DHT22;36320;48.860;2.380;2023-04-06T15:55:08;21.00;46.30
4209;DHT22;36320;48.860;2.380;2023-04-06T15:57:34;20.70;45.80
4209;DHT22;36320;48.860;2.380;2023-04-06T16:00:00;20.30;46.20
4209;DHT22;36320;48.860;2.380;2023-04-06T16:02:27;20.20;47.10
4209;DHT22;36320;48.860;2.380;2023-04-06T16:04:57;19.90;46.90
4209;DHT22;36320;48.860;2.380;2023-04-06T16:07:23;19.70;47.20
4209;DHT22;36320;48.860;2.380;2023-04-06T16:09:50;19.40;47.50
4209;DHT22;36320;48.860;2.380;2023-04-06T16:12:19;19.30;47.70
4209;DHT22;36320;48.860;2.380;2023-04-06T16:14:48;19.50;47.70
4209;DHT22;36320;48.860;2.380;2023-04-06T16:17:14;19.70;47.20